Time;durP1;ratioP1;P1;durP2;ratioP2;P2;SDS_P1;SDS_P2;PMS_P1;PMS_P2;Temp;Humidity;BMP_temperature;BMP_pressure;BME280_temperature;BME280_humidity;BME280_pressure;Samples;Min_cycle;Max_cycle;Signal;HPM_P1;HPM_P2
2023/08/17 00:00:09;;;;;;;14.82;3.70;;;16.80;99.90;;;;;;5075149;28;20091;-75
2023/08/17 00:02:35;;;;;;;12.43;3.90;;;16.90;99.90;;;;;;5075277;28;20514;-74
2023/08/17 00:05:07;;;;;;;11.32;3.85;;;16.90;99.90;;;;;;5075231;28;20052;-74
2023/08/17 00:07:34;;;;;;;13.25;3.65;;;16.90;99.90;;;;;;5075076;28;20048;-74
2023/08/17 00:10:00;;;;;;;11.35;3.70;;;16.90;99.90;;;;;;5074831;28;20177;-74
2023/08/17 00:12:26;;;;;;;11.07;3.42;;;16.90;99.90;;;;;;5074253;28;20502;-74
2023/08/17 00:14:52;;;;;;;13.82;3.95;;;16.90;99.90;;;;;;5075076;28;20118;-74
2023/08/17 00:17:19;;;;;;;11.80;4.45;;;16.90;99.90;;;;;;5074770;28;20051;-74
2023/08/17 00:19:44;;;;;;;17.95;3.95;;;16.90;99.90;;;;;;5075046;28;20044;-74
2023/08/17 00:22:10;;;;;;;14.70;3.45;;;16.80;99.90;;;;;;5074752;28;20506;-74
2023/08/17 00:24:36;;;;;;;8.98;3.45;;;16.90;99.90;;;;;;5074531;28;20044;-74
2023/08/17 00:27:03;;;;;;;12.75;4.20;;;16.80;99.90;;;;;;5074738;28;20045;-74
2023/08/17 00:29:29;;;;;;;10.98;3.75;;;16.80;99.90;;;;;;5074149;28;20143;-75
2023/08/17 00:31:55;;;;;;;9.10;3.60;;;16.80;99.90;;;;;;5074742;28;20135;-74
2023/08/17 00:34:20;;;;;;;8.55;3.55;;;16.80;99.90;;;;;;5074705;28;20132;-74
2023/08/17 00:36:46;;;;;;;10.88;3.25;;;16.80;99.90;;;;;;5075435;28;20568;-74
2023/08/17 00:39:15;;;;;;;14.82;3.90;;;16.80;99.90;;;;;;5074491;28;20135;-74
2023/08/17 00:41:41;;;;;;;11.23;3.95;;;16.70;99.90;;;;;;5074482;28;20384;-74
2023/08/17 00:44:06;;;;;;;13.80;3.90;;;16.70;99.90;;;;;;5074751;28;20127;-74
2023/08/17 00:46:32;;;;;;;9.98;3.92;;;16.70;99.90;;;;;;5074282;28;20044;-74
2023/08/17 00:48:58;;;;;;;8.15;3.53;;;16.70;99.90;;;;;;5074076;28;20089;-74
2023/08/17 00:51:25;;;;;;;13.13;3.38;;;16.80;99.90;;;;;;5074110;28;20052;-74
2023/08/17 00:53:53;;;;;;;9.38;3.45;;;16.80;99.90;;;;;;5074065;28;20045;-74
2023/08/17 00:56:19;;;;;;;14.27;3.42;;;16.70;99.90;;;;;;5074115;28;20412;-74
2023/08/17 00:58:44;;;;;;;9.00;3.38;;;16.70;99.90;;;;;;5074249;28;20050;-74
2023/08/17 01:01:10;;;;;;;9.35;3.05;;;16.70;99.90;;;;;;5074015;28;20057;-74
2023/08/17 01:03:36;;;;;;;8.65;3.30;;;16.70;99.90;;;;;;5073675;28;20056;-74
2023/08/17 01:06:02;;;;;;;12.38;3.50;;;16.70;99.90;;;;;;5073679;28;20060;-74
2023/08/17 01:08:29;;;;;;;10.18;3.05;;;16.70;99.90;;;;;;5075112;28;20042;-74
2023/08/17 01:11:26;;;;;;;11.50;3.42;;;16.70;99.90;;;;;;5073953;28;20528;-74
2023/08/17 01:14:07;;;;;;;10.10;3.70;;;16.70;99.90;;;;;;5073657;28;20048;-74
2023/08/17 01:17:15;;;;;;;8.88;3.05;;;16.70;99.90;;;;;;5073807;28;20056;-74
2023/08/17 01:19:43;;;;;;;11.25;3.60;;;16.70;99.90;;;;;;5074370;28;20060;-74
2023/08/17 01:22:14;;;;;;;10.05;2.97;;;16.70;99.90;;;;;;5074676;28;20396;-74
2023/08/17 01:24:40;;;;;;;10.43;3.00;;;16.70;99.90;;;;;;5074785;28;20056;-74
2023/08/17 01:27:05;;;;;;;6.57;2.63;;;16.70;99.90;;;;;;5073295;28;20049;-74
2023/08/17 01:29:31;;;;;;;9.43;2.85;;;16.70;99.90;;;;;;5073159;28;20102;-74
2023/08/17 01:32:13;;;;;;;13.10;3.25;;;16.70;99.90;;;;;;5073375;28;20079;-74
2023/08/17 01:34:50;;;;;;;8.75;3.33;;;16.70;99.90;;;;;;5074554;28;20105;-74
2023/08/17 01:37:19;;;;;;;10.25;3.22;;;16.70;99.90;;;;;;5073126;28;20104;-74
2023/08/17 01:39:49;;;;;;;10.30;3.42;;;16.70;99.90;;;;;;5073154;28;20052;-74
2023/08/17 01:42:15;;;;;;;8.18;2.88;;;16.80;99.90;;;;;;5073045;28;20410;-74
2023/08/17 01:44:41;;;;;;;15.98;3.30;;;16.70;99.90;;;;;;5073406;28;20048;-75
2023/08/17 01:47:07;;;;;;;12.18;2.95;;;16.70;99.90;;;;;;5074370;28;20549;-74
2023/08/17 01:49:33;;;;;;;11.20;3.10;;;16.70;99.90;;;;;;5074132;28;20052;-75
2023/08/17 01:51:58;;;;;;;10.75;3.50;;;16.70;99.90;;;;;;5073128;28;20038;-74
2023/08/17 01:54:24;;;;;;;8.40;3.33;;;16.70;99.90;;;;;;5072777;28;20436;-74
2023/08/17 01:56:49;;;;;;;9.48;2.90;;;16.70;99.90;;;;;;5073046;28;20044;-75
2023/08/17 01:59:15;;;;;;;14.05;3.10;;;16.70;99.90;;;;;;5072858;28;20063;-74
2023/08/17 02:01:41;;;;;;;13.55;3.53;;;16.80;99.90;;;;;;5072889;28;20047;-75
2023/08/17 02:04:06;;;;;;;11.18;3.40;;;16.80;99.90;;;;;;5073980;28;20048;-75
2023/08/17 02:06:35;;;;;;;9.25;3.30;;;16.70;99.90;;;;;;5072579;28;20051;-74
2023/08/17 02:09:00;;;;;;;12.88;3.83;;;16.70;99.90;;;;;;5073739;28;20062;-74
2023/08/17 02:11:26;;;;;;;13.27;2.95;;;16.70;99.90;;;;;;5072878;28;20040;-74
2023/08/17 02:13:52;;;;;;;13.95;3.58;;;16.60;99.90;;;;;;5073841;28;20482;-74
2023/08/17 02:16:18;;;;;;;7.97;2.92;;;16.70;99.90;;;;;;5072609;28;20139;-74
2023/08/17 02:18:46;;;;;;;7.40;2.95;;;16.70;99.90;;;;;;5072907;28;20044;-74
2023/08/17 02:21:12;;;;;;;9.05;3.10;;;16.60;99.90;;;;;;5072439;28;20044;-74
2023/08/17 02:23:38;;;;;;;6.72;3.03;;;16.60;99.90;;;;;;5072444;28;20052;-75
2023/08/17 02:26:03;;;;;;;7.43;3.05;;;16.60;99.90;;;;;;5072670;28;20032;-75
2023/08/17 02:28:29;;;;;;;8.63;2.80;;;16.60;99.90;;;;;;5072254;28;20396;-74
2023/08/17 02:30:56;;;;;;;11.70;4.30;;;16.60;99.90;;;;;;5072432;28;20230;-74
2023/08/17 02:33:22;;;;;;;9.48;3.08;;;16.60;99.90;;;;;;5072540;28;20044;-75
2023/08/17 02:35:49;;;;;;;14.07;3.40;;;16.60;99.90;;;;;;5071779;28;20558;-74
2023/08/17 02:38:15;;;;;;;10.90;2.88;;;16.60;99.90;;;;;;5072443;28;20052;-74
2023/08/17 02:40:40;;;;;;;8.82;3.13;;;16.60;99.90;;;;;;5072243;28;20044;-74
2023/08/17 02:43:06;;;;;;;11.73;3.30;;;16.60;99.90;;;;;;5072329;28;20044;-74
2023/08/17 02:45:34;;;;;;;9.13;3.05;;;16.60;99.90;;;;;;5072303;28;20139;-74
2023/08/17 02:48:00;;;;;;;7.38;2.78;;;16.70;99.90;;;;;;5072119;28;20068;-74
2023/08/17 02:50:25;;;;;;;11.13;3.53;;;16.60;99.90;;;;;;5073523;28;20041;-74
2023/08/17 02:52:51;;;;;;;10.23;3.15;;;16.70;99.90;;;;;;5072132;28;20044;-74
2023/08/17 02:55:17;;;;;;;9.73;3.03;;;16.70;99.90;;;;;;5072190;28;20045;-74
2023/08/17 02:57:42;;;;;;;12.57;3.38;;;16.70;99.90;;;;;;5072211;28;20032;-74
2023/08/17 03:00:08;;;;;;;8.20;2.95;;;16.70;99.90;;;;;;5072192;28;20048;-74
2023/08/17 03:02:34;;;;;;;10.02;3.65;;;16.70;99.90;;;;;;5071884;28;20044;-74
2023/08/17 03:05:00;;;;;;;7.88;3.20;;;16.70;99.90;;;;;;5072276;28;20048;-74
2023/08/17 03:07:25;;;;;;;7.15;3.25;;;16.70;99.90;;;;;;5072012;28;20128;-74
2023/08/17 03:09:51;;;;;;;11.18;3.15;;;16.70;99.90;;;;;;5071760;28;20132;-74
2023/08/17 03:12:16;;;;;;;9.98;3.70;;;16.70;99.90;;;;;;5071879;28;20048;-74
2023/08/17 03:14:42;;;;;;;6.43;3.20;;;16.70;99.90;;;;;;5072291;28;20045;-74
2023/08/17 03:17:08;;;;;;;10.73;3.17;;;16.70;99.90;;;;;;5072086;28;20045;-74
2023/08/17 03:19:33;;;;;;;9.57;3.45;;;16.60;99.90;;;;;;5071816;28;20049;-74
2023/08/17 03:21:59;;;;;;;8.52;2.90;;;16.60;99.90;;;;;;5072082;28;20045;-74
2023/08/17 03:24:25;;;;;;;9.25;2.78;;;16.70;99.90;;;;;;5073361;28;20076;-74
2023/08/17 03:26:50;;;;;;;10.43;2.92;;;16.70;99.90;;;;;;5073263;28;20158;-74
2023/08/17 03:29:16;;;;;;;8.82;3.30;;;16.60;99.90;;;;;;5071441;28;20095;-74
2023/08/17 03:31:41;;;;;;;12.13;3.40;;;16.60;99.90;;;;;;5071647;28;20041;-74
2023/08/17 03:34:07;;;;;;;7.95;2.80;;;16.60;99.90;;;;;;5071718;28;20048;-74
2023/08/17 03:36:35;;;;;;;10.48;3.00;;;16.50;99.90;;;;;;5071676;28;20040;-74
2023/08/17 03:39:01;;;;;;;10.20;3.10;;;16.50;99.90;;;;;;5071677;28;20079;-74
2023/08/17 03:41:27;;;;;;;12.52;3.17;;;16.50;99.90;;;;;;5073010;28;20048;-74
2023/08/17 03:43:52;;;;;;;11.18;3.10;;;16.50;99.90;;;;;;5071911;28;20055;-74
2023/08/17 03:46:18;;;;;;;12.75;3.63;;;16.50;99.90;;;;;;5071673;28;20048;-74
2023/08/17 03:48:43;;;;;;;8.35;2.72;;;16.50;99.90;;;;;;5073203;28;20050;-74
2023/08/17 03:51:09;;;;;;;8.80;3.35;;;16.50;99.90;;;;;;5076215;28;20048;-74
2023/08/17 03:53:35;;;;;;;11.52;2.65;;;16.50;99.90;;;;;;5075076;28;20476;-74
2023/08/17 03:56:00;;;;;;;10.88;2.88;;;16.50;99.90;;;;;;5074885;28;20087;-74
2023/08/17 03:58:33;;;;;;;10.25;3.33;;;16.50;99.90;;;;;;5075305;28;20048;-74
2023/08/17 04:00:58;;;;;;;10.27;3.08;;;16.50;99.90;;;;;;5076393;28;20050;-74
2023/08/17 04:03:24;;;;;;;6.88;3.60;;;16.50;99.90;;;;;;5075091;28;20036;-74
2023/08/17 04:05:50;;;;;;;9.48;2.95;;;16.50;99.90;;;;;;5075079;28;20055;-74
2023/08/17 04:08:15;;;;;;;12.25;2.85;;;16.50;99.90;;;;;;5074924;28;20044;-74
2023/08/17 04:10:44;;;;;;;9.45;2.60;;;16.50;99.90;;;;;;5075982;28;20051;-74
2023/08/17 04:13:09;;;;;;;7.30;2.75;;;16.50;99.90;;;;;;5074582;28;20045;-73
2023/08/17 04:15:35;;;;;;;9.32;2.97;;;16.40;99.90;;;;;;5074436;28;20053;-74
2023/08/17 04:18:01;;;;;;;6.68;2.58;;;16.40;99.90;;;;;;5074330;28;20048;-75
2023/08/17 04:20:26;;;;;;;10.25;2.75;;;16.40;99.90;;;;;;5074272;28;20052;-74
2023/08/17 04:22:58;;;;;;;8.20;2.70;;;16.50;99.90;;;;;;5073470;28;20048;-74
2023/08/17 04:25:23;;;;;;;9.70;3.60;;;16.40;99.90;;;;;;5073481;28;20079;-73
2023/08/17 04:27:49;;;;;;;7.93;4.07;;;16.50;99.90;;;;;;5074450;28;20492;-74
2023/08/17 04:30:15;;;;;;;7.28;2.80;;;16.50;99.90;;;;;;5073642;28;20053;-74
2023/08/17 04:32:40;;;;;;;8.55;2.67;;;16.50;99.90;;;;;;5074098;28;20105;-73
2023/08/17 04:35:06;;;;;;;7.13;2.70;;;16.50;99.90;;;;;;5074080;28;20079;-73
2023/08/17 04:37:32;;;;;;;9.07;2.25;;;16.40;99.90;;;;;;5074013;28;20127;-73
2023/08/17 04:39:57;;;;;;;8.00;2.30;;;16.40;99.90;;;;;;5074288;28;20483;-74
2023/08/17 04:42:24;;;;;;;5.60;2.50;;;16.40;99.90;;;;;;5073775;28;20059;-74
2023/08/17 04:44:50;;;;;;;7.65;2.35;;;16.40;99.90;;;;;;5073829;28;20049;-74
2023/08/17 04:47:16;;;;;;;8.32;2.30;;;16.40;99.90;;;;;;5074036;28;20041;-74
2023/08/17 04:49:44;;;;;;;10.55;2.70;;;16.40;99.90;;;;;;5073802;28;20354;-75
2023/08/17 04:52:10;;;;;;;8.82;2.33;;;16.40;99.90;;;;;;5075272;28;20033;-75
2023/08/17 04:54:36;;;;;;;7.75;2.47;;;16.40;99.90;;;;;;5075095;28;20353;-74
2023/08/17 04:57:11;;;;;;;7.25;2.80;;;16.40;99.90;;;;;;5073597;28;20040;-74
2023/08/17 04:59:36;;;;;;;11.43;3.17;;;16.30;99.90;;;;;;5073687;28;20051;-74
2023/08/17 05:02:02;;;;;;;6.88;2.70;;;16.30;99.90;;;;;;5073836;28;20040;-75
2023/08/17 05:04:30;;;;;;;6.85;2.20;;;16.30;99.90;;;;;;5073592;28;20044;-74
2023/08/17 05:06:56;;;;;;;7.68;3.10;;;16.40;99.90;;;;;;5073751;28;20071;-74
2023/08/17 05:09:25;;;;;;;6.95;2.67;;;16.40;99.90;;;;;;5074671;28;20033;-74
2023/08/17 05:11:50;;;;;;;9.85;2.95;;;16.30;99.90;;;;;;5074653;28;20536;-74
2023/08/17 05:14:16;;;;;;;9.13;2.88;;;16.40;99.90;;;;;;5073570;28;20120;-74
2023/08/17 05:16:42;;;;;;;8.35;2.22;;;16.40;99.90;;;;;;5073571;28;20048;-74
2023/08/17 05:19:07;;;;;;;5.15;2.50;;;16.50;99.90;;;;;;5073565;28;20051;-74
2023/08/17 05:21:35;;;;;;;8.60;2.47;;;16.60;99.90;;;;;;5073422;28;20049;-74
2023/08/17 05:24:01;;;;;;;14.20;3.05;;;16.60;99.90;;;;;;5073371;28;20451;-74
2023/08/17 05:26:27;;;;;;;8.93;2.90;;;16.70;99.90;;;;;;5073365;28;20040;-74
2023/08/17 05:28:53;;;;;;;9.38;2.65;;;16.70;99.90;;;;;;5074200;28;20438;-74
2023/08/17 05:31:18;;;;;;;9.02;2.85;;;16.80;99.90;;;;;;5074032;28;20063;-74
2023/08/17 05:33:47;;;;;;;11.77;3.20;;;16.90;99.90;;;;;;5073050;28;20040;-74
2023/08/17 05:36:13;;;;;;;8.57;2.90;;;16.90;99.90;;;;;;5072874;28;20083;-74
2023/08/17 05:38:38;;;;;;;9.95;2.90;;;17.00;99.90;;;;;;5073059;28;20048;-74
2023/08/17 05:41:04;;;;;;;9.15;3.45;;;17.00;99.90;;;;;;5073043;28;20097;-74
2023/08/17 05:43:30;;;;;;;8.90;3.15;;;17.10;99.90;;;;;;5072961;28;20048;-74
2023/08/17 05:45:59;;;;;;;13.35;3.00;;;17.10;99.90;;;;;;5072882;28;20091;-74
2023/08/17 05:48:25;;;;;;;8.88;3.15;;;17.20;99.90;;;;;;5072631;28;20048;-74
2023/08/17 05:50:50;;;;;;;8.38;3.00;;;17.20;99.90;;;;;;5072674;28;20123;-74
2023/08/17 05:53:16;;;;;;;12.57;3.83;;;17.20;99.90;;;;;;5072624;28;20040;-74
2023/08/17 05:55:42;;;;;;;9.55;3.05;;;17.20;99.90;;;;;;5072780;28;20052;-75
2023/08/17 05:58:07;;;;;;;8.13;3.08;;;17.20;99.90;;;;;;5073746;28;20499;-74
2023/08/17 06:00:33;;;;;;;11.05;2.67;;;17.30;99.90;;;;;;5072565;28;20044;-74
2023/08/17 06:03:01;;;;;;;9.38;3.28;;;17.30;99.90;;;;;;5072421;28;20048;-74
2023/08/17 06:05:30;;;;;;;9.02;3.08;;;17.40;99.90;;;;;;5072333;28;20403;-74
2023/08/17 06:07:59;;;;;;;7.38;2.70;;;17.40;99.90;;;;;;5072549;28;20086;-74
2023/08/17 06:10:25;;;;;;;11.25;3.47;;;17.50;99.90;;;;;;5071694;28;20083;-75
2023/08/17 06:12:54;;;;;;;8.15;3.25;;;17.50;99.90;;;;;;5072367;28;20044;-75
2023/08/17 06:15:20;;;;;;;12.00;2.95;;;17.70;99.90;;;;;;5072186;28;20052;-75
2023/08/17 06:17:46;;;;;;;11.73;3.05;;;17.70;99.90;;;;;;5073782;28;20120;-74
2023/08/17 06:20:12;;;;;;;7.63;2.75;;;17.80;99.90;;;;;;5073406;28;20147;-75
2023/08/17 06:22:38;;;;;;;10.45;3.13;;;17.90;99.90;;;;;;5072412;28;20490;-74
2023/08/17 06:25:07;;;;;;;8.30;3.10;;;17.90;99.90;;;;;;5072100;28;20056;-75
2023/08/17 06:27:33;;;;;;;9.27;2.78;;;18.10;99.90;;;;;;5071771;28;20403;-75
2023/08/17 06:29:59;;;;;;;6.18;2.53;;;18.20;99.90;;;;;;5071878;28;20392;-74
2023/08/17 06:32:30;;;;;;;9.32;2.72;;;18.10;99.90;;;;;;5073584;28;20068;-75
2023/08/17 06:34:55;;;;;;;8.32;2.35;;;18.20;99.90;;;;;;5071893;28;20052;-74
2023/08/17 06:37:21;;;;;;;7.43;2.17;;;18.40;99.90;;;;;;5072551;28;20046;-74
2023/08/17 06:39:47;;;;;;;9.98;2.42;;;18.50;99.90;;;;;;5072294;28;20059;-76
2023/08/17 06:42:15;;;;;;;13.02;2.95;;;18.40;99.90;;;;;;5070740;28;20049;-79
2023/08/17 06:44:41;;;;;;;8.95;2.20;;;18.60;99.90;;;;;;5071868;28;20101;-74
2023/08/17 06:47:06;;;;;;;8.25;2.50;;;18.60;99.90;;;;;;5071169;28;20044;-76
2023/08/17 06:49:32;;;;;;;9.98;2.53;;;18.80;99.90;;;;;;5075593;28;20059;-74
2023/08/17 06:51:58;;;;;;;9.43;2.20;;;18.80;99.90;;;;;;5061785;28;20047;-74
2023/08/17 06:54:23;;;;;;;7.10;2.20;;;18.60;99.90;;;;;;5051793;28;20049;-75
2023/08/17 06:56:49;;;;;;;9.02;2.35;;;18.80;99.90;;;;;;5056272;28;20053;-75
2023/08/17 06:59:15;;;;;;;8.60;2.20;;;18.70;99.90;;;;;;5062363;28;20048;-74
2023/08/17 07:01:40;;;;;;;7.85;2.05;;;18.80;99.90;;;;;;5062500;28;20037;-74
2023/08/17 07:04:06;;;;;;;7.75;2.60;;;18.90;99.90;;;;;;5073968;28;20139;-75
2023/08/17 07:06:31;;;;;;;6.20;2.17;;;18.70;99.90;;;;;;5076870;28;20052;-74
2023/08/17 07:08:58;;;;;;;5.57;2.30;;;18.80;99.90;;;;;;5062039;28;20049;-75
2023/08/17 07:11:23;;;;;;;6.38;2.20;;;18.80;99.90;;;;;;5079598;28;20045;-74
2023/08/17 07:13:49;;;;;;;7.55;2.50;;;18.90;99.90;;;;;;5079701;28;20510;-75
2023/08/17 07:16:14;;;;;;;5.60;1.80;;;19.10;99.90;;;;;;5052938;28;20052;-74
2023/08/17 07:18:40;;;;;;;6.70;1.92;;;19.10;99.90;;;;;;5068321;28;20041;-73
2023/08/17 07:21:06;;;;;;;6.80;2.20;;;19.00;99.90;;;;;;5053044;28;20486;-75
2023/08/17 07:23:32;;;;;;;5.93;1.88;;;19.00;99.90;;;;;;5056049;28;20753;-73
2023/08/17 07:25:58;;;;;;;7.07;1.60;;;19.20;99.90;;;;;;5056879;28;20513;-74
2023/08/17 07:28:24;;;;;;;8.18;2.05;;;19.20;99.90;;;;;;5063442;28;20068;-74
2023/08/17 07:30:49;;;;;;;4.40;1.80;;;19.30;99.90;;;;;;5075090;28;20499;-73
2023/08/17 07:33:15;;;;;;;9.23;2.25;;;19.40;99.90;;;;;;5060492;28;20087;-74
2023/08/17 07:35:40;;;;;;;8.02;2.10;;;19.30;99.90;;;;;;5071868;28;20045;-74
2023/08/17 07:38:06;;;;;;;7.93;2.30;;;19.30;99.90;;;;;;5055099;28;20106;-74
2023/08/17 07:40:32;;;;;;;9.30;2.00;;;19.30;99.90;;;;;;5073788;28;20045;-74
2023/08/17 07:42:57;;;;;;;5.63;1.60;;;19.30;99.90;;;;;;5076350;28;20456;-75
2023/08/17 07:45:23;;;;;;;7.18;2.03;;;19.30;99.90;;;;;;5089068;28;20032;-75
2023/08/17 07:47:48;;;;;;;5.85;1.95;;;19.30;99.90;;;;;;5077350;28;20044;-75
2023/08/17 07:50:14;;;;;;;7.65;1.80;;;19.40;99.90;;;;;;5082889;28;20052;-75
2023/08/17 07:52:40;;;;;;;11.18;2.40;;;19.50;99.90;;;;;;5080694;28;20072;-75
2023/08/17 07:55:06;;;;;;;7.15;2.10;;;19.40;99.90;;;;;;5058802;28;20057;-73
2023/08/17 07:57:31;;;;;;;8.88;1.95;;;19.50;99.90;;;;;;5082845;28;20043;-74
2023/08/17 07:59:57;;;;;;;6.25;2.10;;;19.60;99.90;;;;;;5071449;28;20044;-74
2023/08/17 08:02:22;;;;;;;10.48;2.72;;;19.50;99.90;;;;;;5082773;28;20059;-73
2023/08/17 08:04:48;;;;;;;6.10;1.77;;;19.20;99.90;;;;;;5082557;28;20056;-74
2023/08/17 08:07:14;;;;;;;9.25;2.25;;;19.10;99.90;;;;;;5054800;28;20442;-74
2023/08/17 08:09:42;;;;;;;7.20;2.45;;;18.90;99.90;;;;;;5057079;28;20040;-74
2023/08/17 08:12:08;;;;;;;6.88;2.00;;;18.90;99.90;;;;;;5063335;28;20378;-74
2023/08/17 08:14:34;;;;;;;9.35;2.38;;;19.00;99.90;;;;;;5071187;28;20055;-74
2023/08/17 08:17:00;;;;;;;9.15;2.15;;;19.40;99.90;;;;;;5063561;28;20393;-74
2023/08/17 08:19:28;;;;;;;6.57;1.92;;;19.40;99.90;;;;;;5056230;28;20052;-74
2023/08/17 08:21:54;;;;;;;5.72;2.30;;;19.50;99.90;;;;;;5055743;28;20048;-74
2023/08/17 08:24:19;;;;;;;7.35;1.95;;;19.50;99.90;;;;;;5071243;28;20049;-74
2023/08/17 08:26:45;;;;;;;7.45;2.08;;;19.50;99.90;;;;;;5054435;28;20049;-74
2023/08/17 08:29:11;;;;;;;5.53;2.25;;;19.40;99.90;;;;;;5054327;28;20052;-74
2023/08/17 08:31:36;;;;;;;13.15;2.20;;;19.50;99.90;;;;;;5077246;28;20052;-75
2023/08/17 08:34:02;;;;;;;8.05;2.00;;;19.40;99.90;;;;;;5074640;28;20057;-75
2023/08/17 08:36:28;;;;;;;4.50;2.13;;;19.20;99.90;;;;;;5071242;28;20044;-74
2023/08/17 08:38:53;;;;;;;7.97;2.30;;;19.20;99.90;;;;;;5063662;28;20037;-75
2023/08/17 08:41:25;;;;;;;9.13;2.28;;;19.00;99.90;;;;;;5075088;28;20044;-74
2023/08/17 08:43:51;;;;;;;8.27;2.78;;;19.10;99.90;;;;;;5075175;28;20101;-73
2023/08/17 08:46:20;;;;;;;10.02;2.40;;;19.00;99.90;;;;;;5091005;28;20045;-80
2023/08/17 08:48:51;;;;;;;7.85;2.60;;;19.00;99.90;;;;;;5073786;28;20037;-76
2023/08/17 08:51:26;;;;;;;5.25;2.22;;;19.10;99.90;;;;;;5074066;28;20048;-80
2023/08/17 08:54:00;;;;;;;7.80;1.98;;;19.10;99.90;;;;;;5090993;28;20054;-78
2023/08/17 08:56:26;;;;;;;8.13;2.30;;;18.90;99.90;;;;;;5074166;28;20129;-73
2023/08/17 08:58:53;;;;;;;7.53;2.30;;;19.00;99.90;;;;;;5075127;28;20388;-73
2023/08/17 09:01:19;;;;;;;7.28;2.08;;;19.10;99.90;;;;;;5090701;28;20071;-73
2023/08/17 09:03:47;;;;;;;7.75;2.38;;;19.40;99.90;;;;;;5074893;28;20056;-73
2023/08/17 09:06:14;;;;;;;7.57;1.95;;;19.50;99.90;;;;;;5090581;28;20110;-75
2023/08/17 09:08:40;;;;;;;9.25;3.60;;;19.50;99.90;;;;;;5073855;28;20051;-74
2023/08/17 09:11:06;;;;;;;7.13;2.38;;;19.60;99.90;;;;;;5075104;28;20044;-74
2023/08/17 09:13:31;;;;;;;8.77;2.10;;;19.50;99.90;;;;;;5090378;28;20044;-73
2023/08/17 09:15:59;;;;;;;6.38;2.13;;;19.70;99.90;;;;;;5090451;28;20585;-74
2023/08/17 09:18:25;;;;;;;7.10;2.10;;;19.80;99.90;;;;;;5073771;28;20076;-74
2023/08/17 09:20:52;;;;;;;8.23;2.50;;;19.60;99.90;;;;;;5090497;28;20484;-73
2023/08/17 09:23:19;;;;;;;5.07;2.50;;;19.70;99.90;;;;;;5073318;28;20395;-73
2023/08/17 09:25:46;;;;;;;10.13;2.45;;;19.80;99.90;;;;;;5073242;28;20369;-74
2023/08/17 09:28:19;;;;;;;8.05;2.58;;;19.90;99.90;;;;;;5073188;28;20145;-74
2023/08/17 09:31:05;;;;;;;5.38;1.85;;;20.10;99.90;;;;;;5072867;28;20075;-74
2023/08/17 09:33:35;;;;;;;7.15;2.50;;;20.00;99.90;;;;;;5073204;28;20056;-75
2023/08/17 09:36:00;;;;;;;7.55;1.95;;;20.10;99.90;;;;;;5073086;28;20051;-74
2023/08/17 09:38:29;;;;;;;9.80;2.40;;;20.10;99.90;;;;;;5072981;28;20037;-74
2023/08/17 09:40:58;;;;;;;10.05;2.22;;;20.10;99.90;;;;;;5063783;28;20059;-73
2023/08/17 09:43:27;;;;;;;8.82;2.30;;;19.90;99.90;;;;;;5078174;28;20032;-73
2023/08/17 09:45:54;;;;;;;7.15;2.45;;;19.90;99.90;;;;;;5077610;28;20045;-73
2023/08/17 09:48:20;;;;;;;16.92;2.60;;;19.70;99.90;;;;;;5053121;28;20468;-73
2023/08/17 09:50:48;;;;;;;9.93;2.65;;;19.50;99.90;;;;;;5053195;28;20053;-73
2023/08/17 09:53:18;;;;;;;7.45;2.50;;;19.40;99.90;;;;;;5064475;28;20439;-73
2023/08/17 09:55:45;;;;;;;6.63;2.30;;;19.50;99.90;;;;;;5060965;28;20033;-74
2023/08/17 09:58:15;;;;;;;9.68;2.60;;;19.20;99.90;;;;;;5052880;28;20044;-74
2023/08/17 10:00:50;;;;;;;5.50;2.42;;;19.30;99.90;;;;;;5060669;28;20091;-78
2023/08/17 10:03:17;;;;;;;9.68;2.08;;;19.20;99.90;;;;;;5054066;28;20071;-74
2023/08/17 10:05:45;;;;;;;9.10;2.50;;;19.40;99.90;;;;;;5089115;28;20059;-74
2023/08/17 10:08:12;;;;;;;8.80;2.60;;;19.40;99.90;;;;;;5072505;28;20044;-73
2023/08/17 10:10:43;;;;;;;9.05;2.78;;;19.40;99.90;;;;;;5072596;28;20048;-74
2023/08/17 10:13:13;;;;;;;9.40;2.83;;;19.20;99.90;;;;;;5053579;28;20041;-73
2023/08/17 10:15:50;;;;;;;10.13;2.70;;;19.10;99.90;;;;;;5052618;28;20045;-73
2023/08/17 10:18:42;;;;;;;13.60;2.80;;;19.10;99.90;;;;;;5052654;28;20079;-73
2023/08/17 10:21:22;;;;;;;9.95;2.53;;;19.20;99.90;;;;;;5052714;28;20120;-74
2023/08/17 10:24:05;;;;;;;9.80;2.70;;;19.10;99.90;;;;;;5070397;28;20374;-73
2023/08/17 10:26:31;;;;;;;9.10;2.90;;;19.20;99.90;;;;;;5076254;28;20045;-73
2023/08/17 10:28:58;;;;;;;6.03;2.72;;;19.30;99.90;;;;;;5058633;28;20127;-72
2023/08/17 10:31:25;;;;;;;7.43;2.53;;;19.30;99.90;;;;;;5088970;28;20052;-73
2023/08/17 10:33:51;;;;;;;10.30;2.47;;;19.20;99.90;;;;;;5089014;28;20044;-73
2023/08/17 10:36:17;;;;;;;11.85;3.17;;;19.30;99.90;;;;;;5072407;28;20135;-73
2023/08/17 10:38:43;;;;;;;9.88;2.90;;;19.30;99.90;;;;;;5073274;28;20056;-73
2023/08/17 10:41:11;;;;;;;9.20;2.50;;;19.30;99.90;;;;;;5053728;28;20040;-73
2023/08/17 10:44:07;;;;;;;10.40;3.15;;;19.20;99.90;;;;;;5052137;28;20033;-73
2023/08/17 10:46:43;;;;;;;7.50;2.40;;;19.40;99.90;;;;;;5039943;28;20057;-73
2023/08/17 10:49:25;;;;;;;10.88;2.53;;;19.60;99.90;;;;;;5051968;28;20044;-73
2023/08/17 10:52:03;;;;;;;9.32;2.63;;;19.60;99.90;;;;;;5052480;28;20049;-74
2023/08/17 10:54:39;;;;;;;6.70;2.80;;;19.60;99.90;;;;;;5052427;28;20033;-73
2023/08/17 10:57:36;;;;;;;11.40;3.22;;;19.90;99.90;;;;;;5053122;28;20500;-73
2023/08/17 11:00:10;;;;;;;11.68;2.90;;;19.80;99.90;;;;;;5056239;28;20110;-73
2023/08/17 11:02:37;;;;;;;11.43;3.00;;;19.80;99.90;;;;;;5056412;28;20048;-73
2023/08/17 11:05:04;;;;;;;11.77;3.45;;;19.80;99.90;;;;;;5056327;28;20045;-73
2023/08/17 11:07:44;;;;;;;8.07;2.63;;;19.90;99.90;;;;;;5055891;28;20400;-73
2023/08/17 11:10:28;;;;;;;9.57;3.28;;;20.00;99.90;;;;;;5057331;28;20045;-73
2023/08/17 11:13:07;;;;;;;7.95;2.78;;;20.10;99.90;;;;;;5056039;28;20116;-73
2023/08/17 11:15:45;;;;;;;8.35;2.75;;;20.20;99.90;;;;;;5056249;28;20060;-72
2023/08/17 11:18:12;;;;;;;7.70;2.65;;;20.10;99.90;;;;;;5072824;28;20515;-73
2023/08/17 11:20:40;;;;;;;9.48;2.60;;;20.10;99.90;;;;;;5057279;28;20048;-73
2023/08/17 11:23:07;;;;;;;14.05;3.10;;;20.30;99.90;;;;;;5055637;28;20389;-73
2023/08/17 11:25:36;;;;;;;7.88;3.08;;;20.10;99.90;;;;;;5055752;28;20052;-73
2023/08/17 11:28:02;;;;;;;13.88;2.67;;;19.80;99.90;;;;;;5057209;28;20048;-73
2023/08/17 11:30:29;;;;;;;12.82;3.17;;;19.80;99.90;;;;;;5055307;28;20065;-72
2023/08/17 11:32:55;;;;;;;9.27;2.75;;;19.70;99.90;;;;;;5055448;28;20048;-73
2023/08/17 11:35:21;;;;;;;13.05;2.33;;;19.70;99.90;;;;;;5072178;28;20492;-73
2023/08/17 11:37:48;;;;;;;10.75;2.80;;;19.70;99.90;;;;;;5055256;28;20407;-74
2023/08/17 11:40:15;;;;;;;10.98;3.17;;;19.70;99.90;;;;;;5055348;28;20049;-73
2023/08/17 11:42:41;;;;;;;26.83;3.58;;;19.80;99.90;;;;;;5058028;28;20037;-74
2023/08/17 11:45:09;;;;;;;9.98;2.88;;;19.50;99.90;;;;;;5067311;28;20091;-74
2023/08/17 11:47:35;;;;;;;9.38;2.95;;;19.50;99.90;;;;;;5081234;28;20048;-73
2023/08/17 11:50:02;;;;;;;10.15;2.97;;;19.60;99.90;;;;;;5076747;28;20124;-74
2023/08/17 11:52:29;;;;;;;12.90;2.70;;;19.70;99.90;;;;;;5056523;28;20037;-73
2023/08/17 11:54:56;;;;;;;9.40;2.85;;;19.60;99.90;;;;;;5063834;28;20095;-74
2023/08/17 11:57:22;;;;;;;7.65;2.70;;;19.60;99.90;;;;;;5057421;28;20044;-73
2023/08/17 11:59:48;;;;;;;7.20;2.55;;;19.50;99.90;;;;;;5065356;28;20049;-73
2023/08/17 12:02:13;;;;;;;9.98;3.28;;;19.50;99.90;;;;;;5064356;28;20048;-74
2023/08/17 12:04:39;;;;;;;10.25;2.85;;;19.40;99.90;;;;;;5059056;28;20045;-74
2023/08/17 12:07:08;;;;;;;8.38;2.90;;;19.40;99.90;;;;;;5056390;28;20086;-74
2023/08/17 12:09:33;;;;;;;11.18;2.67;;;19.50;99.90;;;;;;5081980;28;20040;-74
2023/08/17 12:12:00;;;;;;;7.53;2.80;;;19.50;99.90;;;;;;5074268;28;20381;-73
2023/08/17 12:14:27;;;;;;;11.05;3.20;;;19.50;99.90;;;;;;5056399;28;20037;-74
2023/08/17 12:16:54;;;;;;;9.07;3.15;;;19.30;99.90;;;;;;5063965;28;20045;-74
2023/08/17 12:19:20;;;;;;;12.45;3.80;;;19.40;99.90;;;;;;5056071;28;20098;-74
2023/08/17 12:21:48;;;;;;;9.32;3.08;;;19.40;99.90;;;;;;5071916;28;20127;-76
2023/08/17 12:24:14;;;;;;;12.55;3.20;;;19.40;99.90;;;;;;5072361;28;20476;-73
2023/08/17 12:26:43;;;;;;;11.45;2.83;;;19.50;99.90;;;;;;5078021;28;20091;-74
2023/08/17 12:29:09;;;;;;;9.65;3.08;;;19.50;99.90;;;;;;5055550;28;20064;-74
2023/08/17 12:31:35;;;;;;;9.95;3.28;;;19.60;99.90;;;;;;5071005;28;20500;-73
2023/08/17 12:34:01;;;;;;;10.73;2.78;;;19.40;99.90;;;;;;5054547;28;20108;-74
2023/08/17 12:36:27;;;;;;;10.13;2.83;;;19.50;99.90;;;;;;5055830;28;20500;-74
2023/08/17 12:38:52;;;;;;;8.68;2.58;;;19.40;99.90;;;;;;5070892;28;20041;-74
2023/08/17 12:41:18;;;;;;;12.07;2.58;;;19.50;99.90;;;;;;5055746;28;20128;-73
2023/08/17 12:43:44;;;;;;;10.65;2.45;;;19.50;99.90;;;;;;5064997;28;20080;-73